createdAt,value
2019-02-23T00:01:36.694Z,9.30
2019-02-23T00:04:10.205Z,8.43
2019-02-23T00:06:55.383Z,7.57
2019-02-23T00:09:41.476Z,7.37
2019-02-23T00:12:16.673Z,9.37
2019-02-23T00:14:50.129Z,11.70
2019-02-23T00:17:33.672Z,9.67
2019-02-23T00:20:07.012Z,8.83
2019-02-23T00:22:40.563Z,7.97
2019-02-23T00:25:14.064Z,8.63
2019-02-23T00:27:48.243Z,8.83
2019-02-23T00:30:21.372Z,7.70
2019-02-23T00:32:55.554Z,8.03
2019-02-23T00:35:29.316Z,10.53
2019-02-23T00:38:03.239Z,8.10
2019-02-23T00:40:48.229Z,7.90
2019-02-23T00:43:23.006Z,7.23
2019-02-23T00:45:56.667Z,8.93
2019-02-23T00:48:30.987Z,7.63
2019-02-23T00:51:05.919Z,11.93
2019-02-23T00:53:39.457Z,10.87
2019-02-23T00:56:13.140Z,9.03
2019-02-23T00:58:48.090Z,8.63
2019-02-23T01:01:22.235Z,10.77
2019-02-23T01:04:05.807Z,10.83
2019-02-23T01:06:39.403Z,11.73
2019-02-23T01:09:13.248Z,9.87
2019-02-23T01:11:58.348Z,9.17
2019-02-23T01:14:32.290Z,9.13
2019-02-23T01:17:14.721Z,10.23
2019-02-23T01:19:48.274Z,10.23
2019-02-23T01:22:21.391Z,11.67
2019-02-23T01:24:55.226Z,9.77
2019-02-23T01:27:28.495Z,10.37
2019-02-23T01:30:01.986Z,12.47
2019-02-23T01:32:36.894Z,10.10
2019-02-23T01:35:19.223Z,11.90
2019-02-23T01:37:52.746Z,10.60
2019-02-23T01:40:25.942Z,11.43
2019-02-23T01:42:59.046Z,11.67
2019-02-23T01:45:42.629Z,11.70
2019-02-23T01:48:16.033Z,11.03
2019-02-23T01:50:49.186Z,13.63
2019-02-23T01:53:24.075Z,13.77
2019-02-23T01:56:06.152Z,12.90
2019-02-23T01:58:39.754Z,13.67
2019-02-23T02:01:15.625Z,13.50
2019-02-23T02:03:59.118Z,12.23
2019-02-23T02:06:33.660Z,12.63
2019-02-23T02:09:07.282Z,12.50
2019-02-23T02:11:40.815Z,12.07
2019-02-23T02:14:14.291Z,13.63
2019-02-23T02:16:47.904Z,11.40
2019-02-23T02:19:21.477Z,10.90
2019-02-23T02:21:55.807Z,15.63
2019-02-23T02:24:28.970Z,12.20
2019-02-23T02:27:02.776Z,11.57
2019-02-23T02:29:36.588Z,11.50
2019-02-23T02:32:10.124Z,12.60
2019-02-23T02:34:43.612Z,12.80
2019-02-23T02:37:18.173Z,12.37
2019-02-23T02:40:00.489Z,12.33
2019-02-23T02:42:34.651Z,12.67
2019-02-23T02:45:18.954Z,11.87
2019-02-23T02:47:53.023Z,11.80
2019-02-23T02:50:41.766Z,11.47
2019-02-23T02:53:15.219Z,10.87
2019-02-23T02:55:48.623Z,13.00
2019-02-23T02:58:22.124Z,13.23
2019-02-23T03:00:57.184Z,12.17
2019-02-23T03:03:30.314Z,11.70
2019-02-23T03:06:15.570Z,13.67
2019-02-23T03:08:49.436Z,11.50
2019-02-23T03:11:33.552Z,12.10
2019-02-23T03:14:07.129Z,10.77
2019-02-23T03:16:41.047Z,14.20
2019-02-23T03:19:24.522Z,12.80
2019-02-23T03:21:58.841Z,14.33
2019-02-23T03:24:32.031Z,19.90
2019-02-23T03:27:05.534Z,12.07
2019-02-23T03:29:39.418Z,11.43
2019-02-23T03:32:12.924Z,11.67
2019-02-23T03:34:46.615Z,11.80
2019-02-23T03:37:21.200Z,12.83
2019-02-23T03:39:54.985Z,11.70
2019-02-23T03:42:29.183Z,12.17
2019-02-23T03:45:02.936Z,11.80
2019-02-23T03:47:45.618Z,11.50
2019-02-23T03:50:19.162Z,13.40
2019-02-23T03:52:52.883Z,12.50
2019-02-23T03:55:26.635Z,13.20
2019-02-23T03:58:15.585Z,13.20
2019-02-23T04:00:57.944Z,12.63
2019-02-23T04:03:31.538Z,11.57
2019-02-23T04:06:04.992Z,13.47
2019-02-23T04:08:38.402Z,12.97
2019-02-23T04:11:11.933Z,12.57
2019-02-23T04:13:45.456Z,12.67
2019-02-23T04:16:18.943Z,12.97
2019-02-23T04:18:52.773Z,13.60
2019-02-23T04:21:26.434Z,14.53
2019-02-23T04:24:00.211Z,12.60
2019-02-23T04:26:34.018Z,13.13
2019-02-23T04:29:07.531Z,12.50
2019-02-23T04:31:40.975Z,12.40
2019-02-23T04:34:14.514Z,13.80
2019-02-23T04:36:48.068Z,14.80
2019-02-23T04:39:21.886Z,14.17
2019-02-23T04:41:55.476Z,15.20
2019-02-23T04:44:29.987Z,16.73
2019-02-23T04:47:03.886Z,12.73
2019-02-23T04:49:37.424Z,15.13
2019-02-23T04:52:10.864Z,15.03
2019-02-23T04:54:44.318Z,15.17
2019-02-23T04:57:26.566Z,15.87
2019-02-23T05:00:00.388Z,14.37
2019-02-23T05:02:42.886Z,16.43
2019-02-23T05:05:16.289Z,17.90
2019-02-23T05:07:50.165Z,14.70
2019-02-23T05:10:23.963Z,17.50
2019-02-23T05:13:06.575Z,15.43
2019-02-23T05:15:40.543Z,14.80
2019-02-23T05:18:24.574Z,14.60
2019-02-23T05:20:58.231Z,14.60
2019-02-23T05:23:31.693Z,16.77
2019-02-23T05:26:04.922Z,15.40
2019-02-23T05:28:38.300Z,14.73
2019-02-23T05:31:11.810Z,13.10
2019-02-23T05:33:45.948Z,17.60
2019-02-23T05:36:19.561Z,16.87
2019-02-23T05:38:52.938Z,18.53
2019-02-23T05:41:26.403Z,16.27
2019-02-23T05:43:59.845Z,16.07
2019-02-23T05:46:33.925Z,17.50
2019-02-23T05:49:07.611Z,18.20
2019-02-23T05:51:41.337Z,19.63
2019-02-23T05:54:15.376Z,18.03
2019-02-23T05:56:58.181Z,17.20
2019-02-23T05:59:43.107Z,17.17
2019-02-23T06:02:16.225Z,18.13
2019-02-23T06:04:49.801Z,16.90
2019-02-23T06:07:23.293Z,18.17
2019-02-23T06:09:57.387Z,18.33
2019-02-23T06:12:30.554Z,19.23
2019-02-23T06:15:04.233Z,19.27
2019-02-23T06:17:38.621Z,16.50
2019-02-23T06:20:21.161Z,17.47
2019-02-23T06:22:55.448Z,20.70
2019-02-23T06:25:37.580Z,17.93
2019-02-23T06:28:13.999Z,20.00
2019-02-23T06:30:48.079Z,22.07
2019-02-23T06:33:31.902Z,21.27
2019-02-23T06:36:06.197Z,20.73
2019-02-23T06:38:54.668Z,20.10
2019-02-23T06:41:38.190Z,20.93
2019-02-23T06:44:12.720Z,21.23
2019-02-23T06:46:46.853Z,20.83
2019-02-23T06:49:20.435Z,19.70
2019-02-23T06:52:04.099Z,20.50
2019-02-23T06:54:29.404Z,19.87
2019-02-23T06:57:03.133Z,22.80
2019-02-23T06:59:37.686Z,22.17
2019-02-23T07:02:11.125Z,21.47
2019-02-23T07:04:45.168Z,23.87
2019-02-23T07:07:18.673Z,24.43
2019-02-23T07:09:52.398Z,24.90
2019-02-23T07:12:25.994Z,22.33
2019-02-23T07:14:59.100Z,26.53
2019-02-23T07:17:33.085Z,23.03
2019-02-23T07:20:06.489Z,24.50
2019-02-23T07:22:39.737Z,22.33
2019-02-23T07:25:13.175Z,25.40
2019-02-23T07:27:55.071Z,27.70
2019-02-23T07:30:28.329Z,24.17
2019-02-23T07:33:01.722Z,24.73
2019-02-23T07:35:35.011Z,24.63
2019-02-23T07:38:17.126Z,25.93
2019-02-23T07:40:50.548Z,26.07
2019-02-23T07:43:35.322Z,27.93
2019-02-23T07:46:18.613Z,25.10
2019-02-23T07:48:57.147Z,22.63
2019-02-23T07:51:30.317Z,24.93
2019-02-23T07:54:12.370Z,28.73
2019-02-23T07:56:45.947Z,26.70
2019-02-23T07:59:19.390Z,26.63
2019-02-23T08:01:52.236Z,26.60
2019-02-23T08:04:27.076Z,26.90
2019-02-23T08:07:02.191Z,26.70
2019-02-23T08:09:36.107Z,25.27
2019-02-23T08:12:08.777Z,24.97
2019-02-23T08:14:42.498Z,26.83
2019-02-23T08:17:26.878Z,25.77
2019-02-23T08:20:00.297Z,26.67
2019-02-23T08:22:37.290Z,25.87
2019-02-23T08:25:09.272Z,28.70
2019-02-23T08:27:43.094Z,26.53
2019-02-23T08:30:25.710Z,25.27
2019-02-23T08:32:59.631Z,25.70
2019-02-23T08:35:42.105Z,27.00
2019-02-23T08:38:16.391Z,25.43
2019-02-23T08:40:58.938Z,24.83
2019-02-23T08:43:44.347Z,28.00
2019-02-23T08:46:26.518Z,26.27
2019-02-23T08:49:00.701Z,25.73
2019-02-23T08:51:46.053Z,25.40
2019-02-23T08:54:19.296Z,22.13
2019-02-23T08:56:55.441Z,24.37
2019-02-23T08:59:38.188Z,24.37
2019-02-23T09:02:20.884Z,25.13
2019-02-23T09:05:03.541Z,26.47
2019-02-23T09:07:37.817Z,27.87
2019-02-23T09:10:19.752Z,28.30
2019-02-23T09:12:53.849Z,28.90
2019-02-23T09:15:36.517Z,24.07
2019-02-23T09:18:10.163Z,25.03
2019-02-23T09:20:44.767Z,25.83
2019-02-23T09:23:19.099Z,25.03
2019-02-23T09:26:02.313Z,24.20
2019-02-23T09:28:45.175Z,27.00
2019-02-23T09:31:27.673Z,27.83
2019-02-23T09:33:59.425Z,22.00
2019-02-23T09:36:32.709Z,24.50
2019-02-23T09:39:08.127Z,26.40
2019-02-23T09:41:40.749Z,27.30
2019-02-23T09:44:23.050Z,24.40
2019-02-23T09:46:57.615Z,24.10
2019-02-23T09:49:30.942Z,26.33
2019-02-23T09:52:13.107Z,22.97
2019-02-23T09:54:46.720Z,24.03
2019-02-23T09:57:20.434Z,23.53
2019-02-23T09:59:54.418Z,22.37
2019-02-23T10:02:26.332Z,24.80
2019-02-23T10:05:08.446Z,22.90
2019-02-23T10:07:42.058Z,21.77
2019-02-23T10:10:15.586Z,23.97
2019-02-23T10:12:48.237Z,22.80
2019-02-23T10:15:30.878Z,19.17
2019-02-23T10:18:04.622Z,22.93
2019-02-23T10:20:47.832Z,18.37
2019-02-23T10:23:32.634Z,20.47
2019-02-23T10:26:06.380Z,23.37
2019-02-23T10:28:50.213Z,22.40
2019-02-23T10:31:24.389Z,20.17
2019-02-23T10:33:57.864Z,20.93
2019-02-23T10:36:41.999Z,18.33
2019-02-23T10:39:24.179Z,19.00
2019-02-23T10:41:57.703Z,17.57
2019-02-23T10:44:29.853Z,17.13
2019-02-23T10:47:03.575Z,16.77
2019-02-23T10:49:37.373Z,18.10
2019-02-23T10:52:20.454Z,16.57
2019-02-23T10:55:03.571Z,17.87
2019-02-23T10:57:45.891Z,19.03
2019-02-23T11:00:21.172Z,17.70
2019-02-23T11:03:04.007Z,19.63
2019-02-23T11:05:37.020Z,18.37
2019-02-23T11:08:10.356Z,18.73
2019-02-23T11:10:44.074Z,20.43
2019-02-23T11:13:17.389Z,20.40
2019-02-23T11:15:50.701Z,17.97
2019-02-23T11:18:33.784Z,18.33
2019-02-23T11:21:06.913Z,19.77
2019-02-23T11:23:50.687Z,17.73
2019-02-23T11:26:23.237Z,20.73
2019-02-23T11:29:06.040Z,18.77
2019-02-23T11:31:48.654Z,17.10
2019-02-23T11:34:35.628Z,18.97
2019-02-23T11:37:24.145Z,17.33
2019-02-23T11:39:58.276Z,17.50
2019-02-23T11:42:40.782Z,19.83
2019-02-23T11:45:13.704Z,19.37
2019-02-23T11:47:48.088Z,18.30
2019-02-23T11:50:31.493Z,15.73
2019-02-23T11:53:04.824Z,16.23
2019-02-23T11:55:47.748Z,17.07
2019-02-23T11:58:22.178Z,17.67
2019-02-23T12:00:55.593Z,16.63
2019-02-23T12:03:29.441Z,17.57
2019-02-23T12:06:04.187Z,18.67
2019-02-23T12:08:37.673Z,15.87
2019-02-23T12:11:10.163Z,16.50
2019-02-23T12:13:44.587Z,15.87
2019-02-23T12:16:18.250Z,16.43
2019-02-23T12:19:03.481Z,16.30
2019-02-23T12:21:36.364Z,15.90
2019-02-23T12:24:09.956Z,15.33
2019-02-23T12:26:43.705Z,16.43
2019-02-23T12:29:27.221Z,16.73
2019-02-23T12:32:01.097Z,15.87
2019-02-23T12:34:34.882Z,16.10
2019-02-23T12:37:08.840Z,15.10
2019-02-23T12:39:42.688Z,16.93
2019-02-23T12:42:27.461Z,14.80
2019-02-23T12:45:10.049Z,16.97
2019-02-23T12:47:53.028Z,15.33
2019-02-23T12:50:25.998Z,17.17
2019-02-23T12:53:09.256Z,14.93
2019-02-23T12:55:51.723Z,15.73
2019-02-23T12:58:26.451Z,17.27
2019-02-23T13:00:59.715Z,15.63
2019-02-23T13:03:42.475Z,14.17
2019-02-23T13:06:31.209Z,14.60
2019-02-23T13:09:14.735Z,15.37
2019-02-23T13:12:03.720Z,15.23
2019-02-23T13:15:12.477Z,15.93
2019-02-23T13:18:02.863Z,15.13
2019-02-23T13:21:12.964Z,14.23
2019-02-23T13:24:28.689Z,15.23
2019-02-23T13:27:08.785Z,15.53
2019-02-23T13:30:31.410Z,16.07
2019-02-23T13:34:03.999Z,15.00
2019-02-23T13:37:12.522Z,14.53
2019-02-23T13:40:19.681Z,14.27
2019-02-23T13:43:28.704Z,15.90
2019-02-23T13:46:26.617Z,12.90
2019-02-23T13:49:41.436Z,15.73
2019-02-23T13:52:41.706Z,14.23
2019-02-23T13:55:51.239Z,14.50
2019-02-23T13:58:56.417Z,14.63
2019-02-23T14:02:22.672Z,13.87
2019-02-23T14:05:28.051Z,13.47
2019-02-23T14:08:30.000Z,14.57
2019-02-23T14:11:38.575Z,15.20
2019-02-23T14:14:47.950Z,13.40
2019-02-23T14:18:02.178Z,16.70
2019-02-23T14:21:22.512Z,16.10
2019-02-23T14:24:50.073Z,13.97
2019-02-23T14:28:16.500Z,14.40
2019-02-23T14:31:32.021Z,12.57
2019-02-23T14:34:33.839Z,15.13
2019-02-23T14:37:29.734Z,14.77
2019-02-23T14:40:53.904Z,12.50
2019-02-23T14:44:06.480Z,13.93
2019-02-23T14:47:22.240Z,14.67
2019-02-23T14:50:24.224Z,13.80
2019-02-23T14:53:43.920Z,12.13
2019-02-23T14:56:59.277Z,13.07
2019-02-23T15:00:13.515Z,14.20
2019-02-23T15:03:26.557Z,12.20
2019-02-23T15:06:25.518Z,13.27
2019-02-23T15:09:54.412Z,12.13
2019-02-23T15:12:56.193Z,12.77
2019-02-23T15:16:22.586Z,14.77
2019-02-23T15:19:37.405Z,12.33
2019-02-23T15:23:00.065Z,14.63
2019-02-23T15:26:08.601Z,10.40
2019-02-23T15:29:17.977Z,12.60
2019-02-23T15:32:26.781Z,10.50
2019-02-23T15:35:57.612Z,12.73
2019-02-23T15:39:14.240Z,11.47
2019-02-23T15:42:11.472Z,13.17
2019-02-23T15:45:21.318Z,12.67
2019-02-23T15:48:43.465Z,11.70
2019-02-23T15:54:33.915Z,11.70
2019-02-23T15:57:17.448Z,10.77
2019-02-23T15:59:50.598Z,14.10
2019-02-23T16:02:23.507Z,12.80
2019-02-23T16:05:11.913Z,11.90
2019-02-23T16:07:45.248Z,11.63
2019-02-23T16:10:19.006Z,11.97
2019-02-23T16:12:52.692Z,11.87
2019-02-23T16:15:25.958Z,12.47
2019-02-23T16:18:00.086Z,13.17
2019-02-23T16:20:42.652Z,9.53
2019-02-23T16:23:15.811Z,13.77
2019-02-23T16:25:51.294Z,10.97
2019-02-23T16:28:24.420Z,12.87
2019-02-23T16:30:57.918Z,9.73
2019-02-23T16:33:31.066Z,11.83
2019-02-23T16:36:13.398Z,14.17
2019-02-23T16:38:46.851Z,11.30
2019-02-23T16:41:20.751Z,10.20
2019-02-23T16:43:53.721Z,12.73
2019-02-23T16:46:27.394Z,9.67
2019-02-23T16:49:00.609Z,11.90
2019-02-23T16:51:33.618Z,10.90
2019-02-23T16:54:06.900Z,10.20
2019-02-23T16:56:40.705Z,11.27
2019-02-23T16:59:13.608Z,12.23
2019-02-23T17:01:47.463Z,12.83
2019-02-23T17:04:21.021Z,12.20
2019-02-23T17:06:56.641Z,12.13
2019-02-23T17:09:39.901Z,11.13
2019-02-23T17:12:22.895Z,10.47
2019-02-23T17:15:05.422Z,11.93
2019-02-23T17:17:39.179Z,11.27
2019-02-23T17:20:11.798Z,11.80
2019-02-23T17:22:44.788Z,12.37
2019-02-23T17:25:17.749Z,11.60
2019-02-23T17:27:50.467Z,12.47
2019-02-23T17:30:23.676Z,13.13
2019-02-23T17:32:57.393Z,14.10
2019-02-23T17:35:30.549Z,13.23
2019-02-23T17:38:15.658Z,16.10
2019-02-23T17:40:41.489Z,13.50
2019-02-23T17:43:14.998Z,15.93
2019-02-23T17:45:48.570Z,15.00
2019-02-23T17:48:23.336Z,14.83
2019-02-23T17:50:56.863Z,16.03
2019-02-23T17:53:30.362Z,13.73
2019-02-23T17:56:03.507Z,13.97
2019-02-23T17:58:48.664Z,15.07
2019-02-23T18:01:22.272Z,17.03
2019-02-23T18:03:56.107Z,14.10
2019-02-23T18:06:30.946Z,14.80
2019-02-23T18:09:05.462Z,15.83
2019-02-23T18:11:49.845Z,17.20
2019-02-23T18:14:32.504Z,18.20
2019-02-23T18:17:07.903Z,15.73
2019-02-23T18:19:50.044Z,14.57
2019-02-23T18:22:23.719Z,15.40
2019-02-23T18:24:57.585Z,15.27
2019-02-23T18:27:40.224Z,16.93
2019-02-23T18:30:14.258Z,16.10
2019-02-23T18:33:03.625Z,15.47
2019-02-23T18:35:36.924Z,16.03
2019-02-23T18:38:10.822Z,15.57
2019-02-23T18:40:59.842Z,15.87
2019-02-23T18:43:33.699Z,14.93
2019-02-23T18:46:07.356Z,14.40
2019-02-23T18:48:40.579Z,17.80
2019-02-23T18:51:13.715Z,16.87
2019-02-23T18:53:47.408Z,16.63
2019-02-23T18:56:20.553Z,17.53
2019-02-23T18:59:05.620Z,17.70
2019-02-23T19:01:39.473Z,17.00
2019-02-23T19:04:13.858Z,14.70
2019-02-23T19:06:48.174Z,13.80
2019-02-23T19:09:21.293Z,15.10
2019-02-23T19:12:04.831Z,14.53
2019-02-23T19:14:38.435Z,17.07
2019-02-23T19:17:12.750Z,16.73
2019-02-23T19:19:48.144Z,15.03
2019-02-23T19:22:30.598Z,17.43
2019-02-23T19:25:05.848Z,17.00
2019-02-23T19:27:39.096Z,17.57
2019-02-23T19:30:12.977Z,14.57
2019-02-23T19:32:46.772Z,16.07
2019-02-23T19:35:30.115Z,15.17
2019-02-23T19:38:04.012Z,18.33
2019-02-23T19:40:48.444Z,14.80
2019-02-23T19:43:31.147Z,14.27
2019-02-23T19:46:04.854Z,15.40
2019-02-23T19:48:47.897Z,15.53
2019-02-23T19:51:37.039Z,15.37
2019-02-23T19:54:19.240Z,18.07
2019-02-23T19:56:52.791Z,16.53
2019-02-23T19:59:26.952Z,15.03
2019-02-23T20:02:09.555Z,16.07
2019-02-23T20:04:42.875Z,15.67
2019-02-23T20:07:16.109Z,15.47
2019-02-23T20:09:49.768Z,14.63
2019-02-23T20:12:24.350Z,16.07
2019-02-23T20:15:06.759Z,16.60
2019-02-23T20:17:40.190Z,22.37
2019-02-23T20:20:13.718Z,17.90
2019-02-23T20:22:47.589Z,16.57
2019-02-23T20:25:21.714Z,16.90
2019-02-23T20:28:07.008Z,18.97
2019-02-23T20:30:49.538Z,16.27
2019-02-23T20:33:23.314Z,19.00
2019-02-23T20:36:08.801Z,18.03
2019-02-23T20:38:52.394Z,17.70
2019-02-23T20:41:30.905Z,20.13
2019-02-23T20:44:04.410Z,17.80
2019-02-23T20:46:37.931Z,20.63
2019-02-23T20:49:11.706Z,18.73
2019-02-23T20:51:45.780Z,15.97
2019-02-23T20:54:20.035Z,18.67
2019-02-23T20:56:54.516Z,16.63
2019-02-23T20:59:29.386Z,16.87
2019-02-23T21:02:04.861Z,15.13
2019-02-23T21:04:39.484Z,15.03
2019-02-23T21:07:16.133Z,14.67
2019-02-23T21:09:50.265Z,15.80
2019-02-23T21:12:25.085Z,15.70
2019-02-23T21:15:00.538Z,16.20
2019-02-23T21:17:34.499Z,17.37
2019-02-23T21:20:08.134Z,18.33
2019-02-23T21:22:42.730Z,18.80
2019-02-23T21:25:16.419Z,15.50
2019-02-23T21:27:51.826Z,15.50
2019-02-23T21:30:25.766Z,16.73
2019-02-23T21:33:00.129Z,18.37
2019-02-23T21:35:35.393Z,17.20
2019-02-23T21:38:09.589Z,16.73
2019-02-23T21:40:44.238Z,18.40
2019-02-23T21:43:18.239Z,17.73
2019-02-23T21:45:53.092Z,18.33
2019-02-23T21:48:26.774Z,16.60
2019-02-23T21:51:01.350Z,16.73
2019-02-23T21:53:36.258Z,18.27
2019-02-23T21:56:18.996Z,16.17
2019-02-23T21:59:04.356Z,17.43
2019-02-23T22:01:38.413Z,20.70
2019-02-23T22:04:11.635Z,16.53
2019-02-23T22:06:45.533Z,19.60
2019-02-23T22:09:20.030Z,16.33
2019-02-23T22:11:53.506Z,16.87
2019-02-23T22:14:27.236Z,18.40
2019-02-23T22:17:00.718Z,19.97
2019-02-23T22:19:33.963Z,18.60
2019-02-23T22:22:16.721Z,17.57
2019-02-23T22:24:59.258Z,15.10
2019-02-23T22:27:32.998Z,18.33
2019-02-23T22:30:07.231Z,19.13
2019-02-23T22:32:40.398Z,20.03
2019-02-23T22:35:13.848Z,17.63
2019-02-23T22:38:02.468Z,20.73
2019-02-23T22:40:36.430Z,20.27
2019-02-23T22:43:18.824Z,20.43
2019-02-23T22:45:52.851Z,17.50
2019-02-23T22:48:41.975Z,18.57
2019-02-23T22:51:24.177Z,19.83
2019-02-23T22:53:57.337Z,18.37
2019-02-23T22:56:31.459Z,19.43
2019-02-23T22:59:05.494Z,20.63
2019-02-23T23:01:47.526Z,20.43
2019-02-23T23:04:21.076Z,20.20
2019-02-23T23:06:54.796Z,20.43
2019-02-23T23:09:28.302Z,20.83
2019-02-23T23:12:01.735Z,19.00
2019-02-23T23:14:35.261Z,21.67
2019-02-23T23:17:08.680Z,21.03
2019-02-23T23:19:41.857Z,22.13
2019-02-23T23:22:24.346Z,19.73
2019-02-23T23:24:57.807Z,21.53
2019-02-23T23:27:31.738Z,19.97
2019-02-23T23:30:14.572Z,22.00
2019-02-23T23:32:57.287Z,22.33
2019-02-23T23:35:31.485Z,23.63
2019-02-23T23:38:05.089Z,23.30
2019-02-23T23:40:38.975Z,24.30
2019-02-23T23:43:12.699Z,24.87
2019-02-23T23:45:48.241Z,23.17
2019-02-23T23:48:21.599Z,22.73
2019-02-23T23:50:55.710Z,23.77
2019-02-23T23:53:38.293Z,24.90
2019-02-23T23:56:12.776Z,26.13
2019-02-23T23:58:45.942Z,21.27
